createdAt,value
2022-12-09T00:02:47.836Z,1.10
2022-12-09T00:07:53.059Z,2.13
2022-12-09T00:12:57.185Z,1.63
2022-12-09T00:18:01.069Z,1.13
2022-12-09T00:23:06.117Z,1.00
2022-12-09T00:28:09.910Z,1.47
2022-12-09T00:33:13.452Z,1.40
2022-12-09T00:38:18.482Z,1.20
2022-12-09T00:43:22.328Z,1.43
2022-12-09T00:48:27.276Z,1.57
2022-12-09T00:53:33.824Z,2.17
2022-12-09T00:58:37.725Z,2.73
2022-12-09T01:03:41.691Z,2.50
2022-12-09T01:08:48.001Z,1.40
2022-12-09T01:13:52.978Z,1.30
2022-12-09T01:19:00.540Z,1.50
2022-12-09T01:24:10.253Z,1.70
2022-12-09T01:29:14.240Z,1.73
2022-12-09T01:34:18.271Z,1.10
2022-12-09T01:39:23.304Z,1.07
2022-12-09T01:44:28.514Z,1.10
2022-12-09T01:49:37.471Z,1.13
2022-12-09T01:54:45.311Z,1.10
2022-12-09T01:59:49.887Z,1.50
2022-12-09T02:04:53.589Z,1.83
2022-12-09T02:10:00.208Z,0.67
2022-12-09T02:15:19.249Z,1.10
2022-12-09T02:20:31.259Z,0.80
2022-12-09T02:25:44.569Z,0.77
2022-12-09T02:30:56.720Z,1.00
2022-12-09T02:36:06.673Z,0.80
2022-12-09T02:41:17.158Z,0.83
2022-12-09T02:46:25.050Z,1.07
2022-12-09T02:51:36.639Z,0.90
2022-12-09T02:56:45.440Z,1.70
2022-12-09T03:01:58.832Z,1.30
2022-12-09T03:07:28.527Z,1.27
2022-12-09T03:12:35.678Z,1.20
2022-12-09T03:17:42.570Z,1.40
2022-12-09T03:22:49.743Z,1.60
2022-12-09T03:27:58.978Z,1.20
2022-12-09T03:33:05.099Z,1.27
2022-12-09T03:38:14.671Z,2.03
2022-12-09T03:43:24.451Z,1.87
2022-12-09T03:48:29.062Z,1.83
2022-12-09T03:53:39.657Z,1.30
2022-12-09T03:58:45.894Z,1.47
2022-12-09T04:03:52.285Z,1.63
2022-12-09T04:09:02.141Z,1.97
2022-12-09T04:14:11.900Z,1.53
2022-12-09T04:19:18.847Z,1.40
2022-12-09T04:24:23.887Z,2.80
2022-12-09T04:29:27.624Z,2.80
2022-12-09T04:34:31.450Z,2.83
2022-12-09T04:39:36.705Z,2.50
2022-12-09T04:44:40.568Z,2.10
2022-12-09T04:49:44.244Z,2.67
2022-12-09T04:54:50.338Z,2.40
2022-12-09T04:59:53.856Z,3.17
2022-12-09T05:04:57.688Z,2.33
2022-12-09T05:10:03.924Z,2.73
2022-12-09T05:15:09.171Z,1.60
2022-12-09T05:20:14.607Z,2.10
2022-12-09T05:25:19.782Z,1.70
2022-12-09T05:30:23.476Z,2.40
2022-12-09T05:35:27.333Z,2.73
2022-12-09T05:40:32.516Z,2.37
2022-12-09T05:45:36.766Z,1.67
2022-12-09T05:50:40.625Z,2.10
2022-12-09T05:55:45.734Z,2.57
2022-12-09T06:00:49.678Z,2.50
2022-12-09T06:05:53.616Z,2.40
2022-12-09T06:10:58.995Z,5.77
2022-12-09T06:16:04.430Z,4.07
2022-12-09T06:21:10.287Z,3.10
2022-12-09T06:26:21.713Z,2.73
2022-12-09T06:31:26.036Z,3.00
2022-12-09T06:36:32.107Z,2.50
2022-12-09T06:41:37.305Z,2.40
2022-12-09T06:46:41.406Z,1.90
2022-12-09T06:51:45.553Z,2.90
2022-12-09T06:56:50.829Z,2.40
2022-12-09T07:01:54.642Z,3.23
2022-12-09T07:06:59.092Z,3.10
2022-12-09T07:12:04.289Z,2.23
2022-12-09T07:17:08.554Z,2.43
2022-12-09T07:22:12.694Z,3.17
2022-12-09T07:27:19.817Z,3.20
2022-12-09T07:32:24.357Z,2.67
2022-12-09T07:37:28.318Z,2.07
2022-12-09T07:42:33.659Z,2.43
2022-12-09T07:47:40.889Z,3.90
2022-12-09T07:52:45.239Z,4.70
2022-12-09T07:57:50.357Z,2.73
2022-12-09T08:02:54.579Z,2.57
2022-12-09T08:07:58.712Z,3.53
2022-12-09T08:13:04.381Z,3.33
2022-12-09T08:18:08.065Z,2.17
2022-12-09T08:23:12.339Z,2.57
2022-12-09T08:28:17.880Z,2.40
2022-12-09T08:33:21.668Z,2.03
2022-12-09T08:38:25.755Z,2.70
2022-12-09T08:43:30.751Z,3.63
2022-12-09T08:48:36.633Z,2.33
2022-12-09T08:53:40.913Z,2.87
2022-12-09T08:58:47.296Z,2.70
2022-12-09T09:03:52.054Z,2.57
2022-12-09T09:08:57.574Z,2.60
2022-12-09T09:14:04.955Z,3.23
2022-12-09T09:19:09.846Z,4.07
2022-12-09T09:24:16.142Z,4.43
2022-12-09T09:29:22.828Z,4.73
2022-12-09T09:34:28.019Z,3.83
2022-12-09T09:39:32.152Z,3.50
2022-12-09T09:44:41.329Z,3.33
2022-12-09T09:49:49.337Z,3.50
2022-12-09T09:54:53.525Z,3.73
2022-12-09T10:00:09.986Z,3.27
2022-12-09T10:05:24.112Z,3.50
2022-12-09T10:10:40.296Z,3.43
2022-12-09T10:15:52.978Z,2.80
2022-12-09T10:20:57.215Z,2.43
2022-12-09T10:26:06.138Z,2.40
2022-12-09T10:31:12.733Z,2.20
2022-12-09T10:36:25.407Z,2.30
2022-12-09T10:42:00.800Z,2.40
2022-12-09T10:47:20.083Z,2.30
2022-12-09T10:52:25.748Z,2.87
2022-12-09T10:57:31.311Z,2.90
2022-12-09T11:02:36.683Z,2.33
2022-12-09T11:07:41.022Z,2.00
2022-12-09T11:12:45.142Z,1.93
2022-12-09T11:17:59.423Z,1.90
2022-12-09T11:23:06.453Z,1.60
2022-12-09T11:28:26.089Z,1.70
2022-12-09T11:33:33.537Z,1.67
2022-12-09T11:38:41.024Z,1.63
2022-12-09T11:43:47.656Z,1.97
2022-12-09T11:48:57.001Z,1.73
2022-12-09T11:54:05.499Z,2.03
2022-12-09T11:59:13.052Z,1.73
2022-12-09T12:04:24.215Z,1.70
2022-12-09T12:09:35.077Z,1.63
2022-12-09T12:14:42.874Z,1.40
2022-12-09T12:19:50.931Z,1.97
2022-12-09T12:25:24.857Z,1.63
2022-12-09T12:30:40.080Z,1.70
2022-12-09T12:36:02.153Z,1.20
2022-12-09T12:41:15.122Z,1.30
2022-12-09T12:46:34.786Z,1.30
2022-12-09T12:51:53.902Z,1.30
2022-12-09T12:57:09.851Z,1.07
2022-12-09T13:02:27.593Z,1.20
2022-12-09T13:07:39.928Z,1.80
2022-12-09T13:12:56.970Z,1.20
2022-12-09T13:18:07.232Z,0.83
2022-12-09T13:23:24.929Z,0.93
2022-12-09T13:28:35.801Z,0.97
2022-12-09T13:33:48.984Z,0.97
2022-12-09T13:38:53.956Z,1.30
2022-12-09T13:43:59.398Z,1.40
2022-12-09T13:49:10.638Z,1.13
2022-12-09T13:54:19.136Z,1.10
2022-12-09T13:59:46.423Z,1.10
2022-12-09T14:05:00.015Z,2.47
2022-12-09T14:10:06.061Z,1.37
2022-12-09T14:15:36.692Z,1.10
2022-12-09T14:20:40.876Z,1.50
2022-12-09T14:26:04.497Z,0.90
2022-12-09T14:31:09.129Z,1.50
2022-12-09T14:36:27.402Z,1.03
2022-12-09T14:41:39.475Z,1.30
2022-12-09T14:46:45.280Z,0.90
2022-12-09T14:51:51.559Z,1.40
2022-12-09T14:56:59.070Z,1.50
2022-12-09T15:02:05.179Z,1.67
2022-12-09T15:07:15.816Z,2.07
2022-12-09T15:12:26.048Z,3.27
2022-12-09T15:17:33.586Z,2.83
2022-12-09T15:22:37.241Z,2.50
2022-12-09T15:27:42.184Z,1.73
2022-12-09T15:32:46.329Z,1.80
2022-12-09T15:37:52.422Z,1.70
2022-12-09T15:43:01.986Z,2.03
2022-12-09T15:48:11.366Z,1.87
2022-12-09T15:53:19.721Z,2.17
2022-12-09T15:58:29.622Z,2.30
2022-12-09T16:03:35.370Z,3.60
2022-12-09T16:08:41.315Z,2.50
2022-12-09T16:14:11.140Z,2.97
2022-12-09T16:19:40.610Z,2.73
2022-12-09T16:30:17.100Z,2.37
2022-12-09T16:35:24.769Z,1.80
2022-12-09T16:41:03.777Z,2.40
2022-12-09T16:46:33.493Z,2.33
2022-12-09T16:51:39.946Z,2.10
2022-12-09T16:56:43.881Z,1.87
2022-12-09T17:01:48.859Z,2.20
2022-12-09T17:06:52.518Z,2.30
2022-12-09T17:11:56.015Z,2.20
2022-12-09T17:17:02.584Z,2.20
2022-12-09T17:22:06.174Z,2.43
2022-12-09T17:27:10.160Z,3.13
2022-12-09T17:32:15.234Z,2.87
2022-12-09T17:37:18.880Z,2.50
2022-12-09T17:42:22.452Z,3.70
2022-12-09T17:47:28.528Z,4.40
2022-12-09T17:52:32.161Z,5.50
2022-12-09T17:57:37.147Z,6.00
2022-12-09T18:02:42.767Z,4.70
2022-12-09T18:07:46.402Z,4.70
2022-12-09T18:12:50.013Z,4.00
2022-12-09T18:17:54.990Z,3.50
2022-12-09T18:22:58.531Z,6.40
2022-12-09T18:28:02.174Z,4.60
2022-12-09T18:33:07.274Z,5.30
2022-12-09T18:38:12.868Z,3.30
2022-12-09T18:43:16.639Z,4.60
2022-12-09T18:48:21.599Z,4.97
2022-12-09T18:53:25.657Z,4.10
2022-12-09T18:58:57.600Z,4.47
2022-12-09T19:03:57.352Z,3.80
2022-12-09T19:09:02.491Z,3.73
2022-12-09T19:14:07.341Z,6.17
2022-12-09T19:19:15.241Z,5.10
2022-12-09T19:24:21.042Z,6.27
2022-12-09T19:29:25.480Z,8.00
2022-12-09T19:34:31.626Z,10.40
2022-12-09T19:39:35.235Z,5.50
2022-12-09T19:45:00.211Z,4.83
2022-12-09T19:50:03.991Z,5.00
2022-12-09T19:55:09.119Z,5.77
2022-12-09T20:00:13.893Z,4.60
2022-12-09T20:05:19.049Z,5.30
2022-12-09T20:10:22.648Z,5.17
2022-12-09T20:15:26.248Z,4.77
2022-12-09T20:20:31.191Z,5.10
2022-12-09T20:25:35.314Z,4.77
2022-12-09T20:30:38.894Z,4.80
2022-12-09T20:35:43.791Z,5.00
2022-12-09T20:40:47.370Z,5.20
2022-12-09T20:45:50.940Z,8.87
2022-12-09T20:50:55.905Z,8.37
2022-12-09T20:56:00.873Z,8.73
2022-12-09T21:01:08.550Z,8.60
2022-12-09T21:06:15.146Z,8.10
2022-12-09T21:11:20.705Z,5.97
2022-12-09T21:16:27.011Z,6.93
2022-12-09T21:21:33.801Z,8.13
2022-12-09T21:26:38.118Z,8.23
2022-12-09T21:31:44.016Z,7.37
2022-12-09T21:36:49.669Z,6.63
2022-12-09T21:41:53.452Z,7.23
2022-12-09T21:46:57.026Z,7.53
2022-12-09T21:52:02.018Z,6.13
2022-12-09T21:57:05.678Z,6.40
2022-12-09T22:02:10.571Z,5.70
2022-12-09T22:07:15.506Z,5.73
2022-12-09T22:12:19.059Z,4.83
2022-12-09T22:17:22.650Z,5.70
2022-12-09T22:22:27.848Z,4.47
2022-12-09T22:27:31.375Z,5.10
2022-12-09T22:32:40.713Z,4.50
2022-12-09T22:37:46.489Z,7.33
2022-12-09T22:42:50.132Z,6.23
2022-12-09T22:47:55.634Z,5.20
2022-12-09T22:53:00.549Z,5.70
2022-12-09T22:58:04.911Z,5.93
2022-12-09T23:03:08.534Z,6.40
2022-12-09T23:08:14.308Z,6.07
2022-12-09T23:13:18.041Z,8.33
2022-12-09T23:18:21.601Z,9.23
2022-12-09T23:23:26.499Z,6.70
2022-12-09T23:28:30.192Z,7.77
2022-12-09T23:33:35.117Z,7.13
2022-12-09T23:38:40.400Z,6.00
2022-12-09T23:43:44.495Z,5.20
2022-12-09T23:48:49.699Z,4.53
2022-12-09T23:53:56.862Z,6.07
2022-12-09T23:59:02.761Z,5.17
